Time;durP1;ratioP1;P1;durP2;ratioP2;P2;SDS_P1;SDS_P2;PMS_P1;PMS_P2;Temp;Humidity;BMP_temperature;BMP_pressure;BME280_temperature;BME280_humidity;BME280_pressure;Samples;Min_cycle;Max_cycle;Signal;HPM_P1;HPM_P2
2023/02/03 00:00:55;;;;;;;21.58;12.10;;;;;;;3.67;96.53;99394.34;5006370;28;20409;-80
2023/02/03 00:03:21;;;;;;;20.58;12.43;;;;;;;3.65;96.98;99389.25;5021418;28;20086;-80
2023/02/03 00:05:47;;;;;;;20.45;11.63;;;;;;;3.77;97.41;99405.41;4988500;28;20719;-81
2023/02/03 00:08:13;;;;;;;17.88;11.90;;;;;;;3.83;96.85;99399.34;5019055;28;20443;-81
2023/02/03 00:10:39;;;;;;;19.80;12.75;;;;;;;3.76;97.33;99399.28;5005834;28;20035;-81
2023/02/03 00:13:06;;;;;;;29.13;17.00;;;;;;;3.72;97.99;99381.38;5006948;28;20116;-81
2023/02/03 00:15:31;;;;;;;22.27;12.77;;;;;;;3.74;97.75;99374.09;5010370;28;20493;-81
2023/02/03 00:17:57;;;;;;;22.77;13.65;;;;;;;3.66;97.41;99366.31;5012970;28;20100;-80
2023/02/03 00:20:22;;;;;;;24.23;13.27;;;;;;;3.78;97.40;99367.41;5023339;28;20038;-81
2023/02/03 00:22:48;;;;;;;23.15;13.77;;;;;;;3.79;97.84;99369.06;5005861;28;20071;-81
2023/02/03 00:25:13;;;;;;;23.85;13.55;;;;;;;3.79;97.57;99371.69;5006462;28;20443;-81
2023/02/03 00:27:39;;;;;;;23.38;13.05;;;;;;;3.73;97.88;99354.78;5008142;28;20610;-80
2023/02/03 00:30:04;;;;;;;17.35;9.85;;;;;;;3.74;97.39;99319.47;5004196;28;20060;-81
2023/02/03 00:32:30;;;;;;;25.00;16.05;;;;;;;3.86;97.27;99324.22;5019608;28;20036;-80
2023/02/03 00:34:55;;;;;;;26.48;16.23;;;;;;;3.87;98.04;99345.16;5018980;28;20500;-80
2023/02/03 00:37:22;;;;;;;29.00;16.60;;;;;;;3.85;98.86;99359.53;5021023;28;20415;-80
2023/02/03 00:39:48;;;;;;;28.58;17.02;;;;;;;3.78;98.91;99360.31;5019337;28;20067;-81
2023/02/03 00:42:14;;;;;;;33.60;17.42;;;;;;;3.90;98.95;99363.25;5020730;28;20116;-80
2023/02/03 00:44:39;;;;;;;33.45;19.20;;;;;;;3.88;98.70;99349.44;5005024;28;20156;-81
2023/02/03 00:47:04;;;;;;;31.80;19.10;;;;;;;3.83;98.68;99338.63;5025612;28;20026;-81
2023/02/03 00:49:30;;;;;;;31.77;17.98;;;;;;;3.94;98.82;99343.38;5021563;28;20095;-80
2023/02/03 00:51:56;;;;;;;38.95;19.73;;;;;;;3.81;98.72;99324.81;5023483;28;20485;-80
2023/02/03 00:54:21;;;;;;;29.73;17.15;;;;;;;3.85;98.93;99338.41;5013583;28;20037;-81
2023/02/03 00:56:46;;;;;;;36.38;21.45;;;;;;;3.86;99.51;99329.50;5026522;28;20017;-80
2023/02/03 00:59:12;;;;;;;31.15;17.52;;;;;;;3.84;99.79;99329.72;5001364;28;20039;-80
2023/02/03 01:01:37;;;;;;;33.70;20.02;;;;;;;3.96;100.00;99336.06;5015176;28;20033;-80
2023/02/03 01:04:03;;;;;;;32.42;19.80;;;;;;;3.92;99.62;99319.00;5027490;28;20036;-81
2023/02/03 01:06:28;;;;;;;38.55;19.98;;;;;;;4.01;99.19;99338.13;5012101;28;20029;-80
2023/02/03 01:08:54;;;;;;;38.13;21.15;;;;;;;3.89;99.61;99335.19;5022183;28;20036;-80
2023/02/03 01:11:24;;;;;;;34.22;20.30;;;;;;;3.95;99.32;99342.38;5013992;28;20060;-80
2023/02/03 01:13:50;;;;;;;33.08;18.17;;;;;;;3.97;99.98;99331.59;5029700;28;20720;-80
2023/02/03 01:16:18;;;;;;;32.83;17.85;;;;;;;4.02;99.14;99331.84;5027898;28;20075;-80
2023/02/03 01:18:44;;;;;;;33.33;19.25;;;;;;;3.99;99.62;99334.88;5005226;28;20033;-81
2023/02/03 01:21:15;;;;;;;35.88;20.35;;;;;;;3.99;99.37;99340.16;4997030;28;20025;-80
2023/02/03 01:23:41;;;;;;;30.73;18.58;;;;;;;4.06;100.00;99341.00;5023008;28;20096;-80
2023/02/03 01:26:10;;;;;;;35.60;20.33;;;;;;;4.02;99.14;99340.56;5027999;28;20150;-80
2023/02/03 01:28:35;;;;;;;37.08;19.38;;;;;;;4.11;98.57;99334.13;5011409;28;20033;-80
2023/02/03 01:31:23;;;;;;;40.15;21.42;;;;;;;4.05;98.94;99328.81;5007122;28;20025;-80
2023/02/03 01:33:51;;;;;;;35.47;19.63;;;;;;;4.09;98.30;99345.88;5010797;28;20041;-80
2023/02/03 01:36:17;;;;;;;38.40;23.35;;;;;;;4.06;99.01;99333.09;5021844;28;20092;-81
2023/02/03 01:38:44;;;;;;;36.28;21.17;;;;;;;4.14;99.23;99333.75;5021297;28;20497;-81
2023/02/03 01:41:16;;;;;;;37.83;21.45;;;;;;;4.15;98.31;99329.28;5020689;28;20051;-82
2023/02/03 01:43:46;;;;;;;36.85;20.52;;;;;;;4.17;97.91;99340.47;5000762;28;20029;-82
2023/02/03 01:46:23;;;;;;;39.10;23.05;;;;;;;4.04;99.24;99345.69;5011369;28;20130;-82
2023/02/03 01:48:49;;;;;;;33.65;18.30;;;;;;;4.06;99.04;99331.28;5024100;28;20069;-82
2023/02/03 01:51:14;;;;;;;36.38;22.10;;;;;;;4.15;99.11;99348.56;5013065;28;20022;-81
2023/02/03 01:53:40;;;;;;;36.75;21.30;;;;;;;4.15;98.69;99337.22;5008989;28;20551;-81
2023/02/03 01:56:07;;;;;;;41.13;22.27;;;;;;;4.01;98.65;99328.38;5026438;28;20029;-81
2023/02/03 01:58:38;;;;;;;40.75;20.80;;;;;;;4.10;99.69;99335.16;5005589;28;20399;-81
2023/02/03 02:01:04;;;;;;;27.90;15.63;;;;;;;4.11;99.18;99328.00;5023374;28;20025;-82
2023/02/03 02:03:45;;;;;;;39.10;21.90;;;;;;;4.15;98.85;99334.56;5021585;28;20400;-82
2023/02/03 02:06:12;;;;;;;35.63;21.48;;;;;;;4.15;99.21;99329.28;5008990;28;20040;-81
2023/02/03 02:08:41;;;;;;;35.22;21.08;;;;;;;4.20;98.59;99337.41;5025572;28;21629;-81
2023/02/03 02:11:07;;;;;;;41.72;22.63;;;;;;;4.22;98.01;99338.84;5025820;28;20111;-81
2023/02/03 02:13:33;;;;;;;34.95;20.75;;;;;;;4.25;98.20;99346.41;5021807;28;20137;-80
2023/02/03 02:16:09;;;;;;;36.60;22.13;;;;;;;4.17;97.87;99333.34;5025479;28;20056;-81
2023/02/03 02:19:02;;;;;;;31.63;19.63;;;;;;;4.29;98.00;99352.09;5020589;28;20051;-80
2023/02/03 02:21:36;;;;;;;36.35;19.70;;;;;;;4.23;97.49;99339.69;5026482;28;20556;-80
2023/02/03 02:24:39;;;;;;;36.33;21.73;;;;;;;4.33;97.11;99342.75;5023133;28;20880;-80
2023/02/03 02:27:20;;;;;;;39.85;21.85;;;;;;;4.30;98.21;99324.69;5022212;28;20114;-81
2023/02/03 02:29:54;;;;;;;36.85;22.27;;;;;;;4.34;97.84;99313.53;5022211;28;20029;-81
2023/02/03 02:32:35;;;;;;;38.42;22.17;;;;;;;4.32;98.33;99304.16;5022496;28;20049;-80
2023/02/03 02:35:12;;;;;;;38.00;22.77;;;;;;;4.35;97.31;99311.66;5022411;28;20049;-81
2023/02/03 02:37:53;;;;;;;39.42;22.08;;;;;;;4.31;97.36;99300.69;5021256;28;20098;-80
2023/02/03 02:40:38;;;;;;;42.58;23.70;;;;;;;4.28;97.87;99295.78;5003309;28;20045;-81
2023/02/03 02:43:19;;;;;;;38.90;20.45;;;;;;;4.38;97.26;99306.81;5020012;28;20385;-81
2023/02/03 02:45:59;;;;;;;32.70;19.88;;;;;;;4.39;97.22;99310.28;5025398;28;20025;-81
2023/02/03 02:48:43;;;;;;;40.45;23.60;;;;;;;4.37;96.97;99307.00;5028772;28;20065;-81
2023/02/03 02:51:12;;;;;;;39.45;20.85;;;;;;;4.31;96.75;99289.31;5026683;28;20057;-81
2023/02/03 02:53:42;;;;;;;35.22;20.15;;;;;;;4.42;96.59;99300.13;5026305;28;20048;-81
2023/02/03 02:56:09;;;;;;;49.80;26.20;;;;;;;4.32;97.33;99280.38;5030091;28;20026;-81
2023/02/03 02:58:38;;;;;;;37.70;22.17;;;;;;;4.33;97.55;99264.31;5024682;28;20026;-80
2023/02/03 03:01:06;;;;;;;32.65;18.48;;;;;;;4.29;97.20;99270.19;5023744;28;20108;-81
2023/02/03 03:03:32;;;;;;;39.05;22.67;;;;;;;4.34;97.44;99257.22;5007923;28;20038;-81
2023/02/03 03:06:27;;;;;;;42.05;22.70;;;;;;;4.36;98.06;99253.38;5024222;28;20025;-81
2023/02/03 03:09:02;;;;;;;38.50;22.40;;;;;;;4.40;97.22;99240.56;5007300;28;20052;-81
2023/02/03 03:11:36;;;;;;;39.28;22.63;;;;;;;4.46;96.81;99250.31;5025030;28;20033;-81
2023/02/03 03:14:05;;;;;;;37.72;23.42;;;;;;;4.45;96.44;99257.47;5026119;28;20041;-81
2023/02/03 03:16:36;;;;;;;35.55;20.67;;;;;;;4.43;97.38;99248.88;5021991;28;20025;-81
2023/02/03 03:19:05;;;;;;;39.25;23.60;;;;;;;4.37;97.17;99228.56;5019501;28;20140;-81
2023/02/03 03:21:36;;;;;;;38.17;21.00;;;;;;;4.39;97.44;99255.59;5005428;28;20114;-81
2023/02/03 03:24:06;;;;;;;36.92;22.42;;;;;;;4.37;97.12;99254.97;5024972;28;20036;-81
2023/02/03 03:26:45;;;;;;;39.63;21.52;;;;;;;4.37;97.18;99259.44;5022431;28;20029;-80
2023/02/03 03:29:18;;;;;;;36.30;22.92;;;;;;;4.52;97.45;99294.47;5023211;28;20112;-80
2023/02/03 03:31:44;;;;;;;40.47;24.38;;;;;;;4.35;97.78;99293.19;5027330;28;20355;-80
2023/02/03 03:34:12;;;;;;;37.78;21.90;;;;;;;4.36;98.08;99292.19;4993141;28;20044;-80
2023/02/03 03:36:45;;;;;;;39.58;22.90;;;;;;;4.47;98.13;99300.38;5023741;28;20481;-80
2023/02/03 03:39:32;;;;;;;37.90;21.73;;;;;;;4.41;98.53;99289.75;5008736;28;20035;-80
2023/02/03 03:42:03;;;;;;;36.85;22.90;;;;;;;4.34;98.71;99281.81;5025911;28;20025;-80
2023/02/03 03:44:36;;;;;;;36.78;23.48;;;;;;;4.43;98.49;99290.38;5025857;28;20497;-80
2023/02/03 03:47:09;;;;;;;41.75;22.85;;;;;;;4.51;97.78;99284.91;5030927;28;20026;-80
2023/02/03 03:49:38;;;;;;;42.80;23.30;;;;;;;4.60;97.07;99285.53;5029226;28;20033;-80
2023/02/03 03:52:08;;;;;;;36.20;22.45;;;;;;;4.53;97.45;99283.69;5013298;28;20069;-80
2023/02/03 03:54:36;;;;;;;40.78;23.02;;;;;;;4.60;96.45;99282.91;5027511;28;20550;-80
2023/02/03 03:57:17;;;;;;;35.55;19.42;;;;;;;4.36;96.44;99263.94;4995255;28;20041;-80
2023/02/03 03:59:47;;;;;;;31.85;20.10;;;;;;;4.37;97.02;99246.22;5021471;28;20025;-81
2023/02/03 04:02:13;;;;;;;26.05;13.38;;;;;;;4.40;98.19;99251.94;5024502;28;20110;-81
2023/02/03 04:04:40;;;;;;;39.20;19.65;;;;;;;4.38;98.49;99235.47;5004687;28;20198;-80
2023/02/03 04:07:05;;;;;;;38.58;20.35;;;;;;;4.41;98.75;99221.06;5018967;28;20505;-80
2023/02/03 04:09:31;;;;;;;32.75;19.60;;;;;;;4.41;98.79;99227.13;5004796;28;20044;-80
2023/02/03 04:12:02;;;;;;;32.00;17.73;;;;;;;4.41;98.48;99219.22;5021485;28;20202;-79
2023/02/03 04:14:34;;;;;;;34.35;16.95;;;;;;;4.43;98.51;99216.38;5025701;28;20485;-81
2023/02/03 04:17:00;;;;;;;32.78;19.50;;;;;;;4.48;97.83;99221.88;5021446;28;20432;-81
2023/02/03 04:19:26;;;;;;;33.55;19.98;;;;;;;4.45;97.97;99215.19;5022050;28;20037;-80
2023/02/03 04:21:51;;;;;;;27.38;15.93;;;;;;;4.41;97.79;99221.84;5005893;28;20033;-80
2023/02/03 04:24:17;;;;;;;35.42;16.27;;;;;;;4.44;98.88;99220.63;4988330;28;20033;-81
2023/02/03 04:26:42;;;;;;;28.15;15.65;;;;;;;4.43;98.32;99214.53;5002759;28;20030;-80
2023/02/03 04:29:08;;;;;;;33.42;20.45;;;;;;;4.44;97.48;99202.97;5020625;28;20033;-80
2023/02/03 04:31:33;;;;;;;26.38;12.05;;;;;;;4.51;97.98;99216.19;5001428;28;20040;-81
2023/02/03 04:33:59;;;;;;;30.90;19.65;;;;;;;4.45;98.31;99188.75;5019356;28;20029;-81
2023/02/03 04:36:24;;;;;;;37.22;22.17;;;;;;;4.49;97.89;99179.41;5019775;28;20033;-81
2023/02/03 04:38:50;;;;;;;41.20;20.98;;;;;;;4.47;97.14;99186.72;5016696;28;20033;-80
2023/02/03 04:41:16;;;;;;;34.00;21.30;;;;;;;4.50;97.61;99188.94;5003679;28;20051;-80
2023/02/03 04:43:41;;;;;;;36.47;21.30;;;;;;;4.45;97.48;99167.59;5018104;28;20390;-80
2023/02/03 04:46:07;;;;;;;35.78;21.33;;;;;;;4.53;97.13;99172.69;4998494;28;20083;-81
2023/02/03 04:48:32;;;;;;;33.63;16.95;;;;;;;4.55;97.52;99183.88;5001987;28;20037;-80
2023/02/03 04:51:02;;;;;;;31.48;19.42;;;;;;;4.52;97.10;99171.06;4991318;28;20052;-80
2023/02/03 04:53:28;;;;;;;34.65;19.65;;;;;;;4.44;96.77;99171.25;5024771;28;20049;-79
2023/02/03 04:55:53;;;;;;;34.35;20.98;;;;;;;4.49;97.69;99173.28;5018564;28;20057;-80
2023/02/03 04:58:19;;;;;;;33.90;21.42;;;;;;;4.56;97.36;99182.06;5006583;28;20118;-80
2023/02/03 05:00:44;;;;;;;32.97;17.52;;;;;;;4.52;96.81;99180.84;5009116;28;20037;-79
2023/02/03 05:03:10;;;;;;;35.28;20.35;;;;;;;4.48;96.62;99169.00;4990662;28;20139;-80
2023/02/03 05:05:35;;;;;;;35.05;18.90;;;;;;;4.57;97.22;99176.56;5005520;28;20051;-79
2023/02/03 05:08:00;;;;;;;35.08;19.75;;;;;;;4.51;97.74;99172.09;5023885;28;20047;-80
2023/02/03 05:10:26;;;;;;;32.75;17.42;;;;;;;4.59;97.32;99184.28;5008702;28;20044;-79
2023/02/03 05:12:51;;;;;;;37.72;20.35;;;;;;;4.56;97.61;99166.97;5010280;28;20033;-79
2023/02/03 05:15:16;;;;;;;31.42;15.10;;;;;;;4.54;96.64;99173.50;5003343;28;20473;-80
2023/02/03 05:17:42;;;;;;;28.38;16.02;;;;;;;4.49;97.31;99168.81;5001409;28;20025;-81
2023/02/03 05:20:08;;;;;;;31.95;18.90;;;;;;;4.59;96.68;99172.91;4992570;28;20045;-80
2023/02/03 05:22:34;;;;;;;32.42;19.58;;;;;;;4.54;96.92;99161.09;5003530;28;20068;-79
2023/02/03 05:25:00;;;;;;;23.33;14.40;;;;;;;4.57;96.56;99162.53;5008616;28;20053;-79
2023/02/03 05:27:26;;;;;;;25.95;13.95;;;;;;;4.54;96.41;99157.66;5019094;28;20097;-80
2023/02/03 05:29:51;;;;;;;25.08;14.65;;;;;;;4.51;97.24;99150.94;4993305;28;20043;-79
2023/02/03 05:32:16;;;;;;;26.13;15.23;;;;;;;4.53;96.95;99151.53;4988559;28;20402;-79
2023/02/03 05:34:42;;;;;;;31.40;15.68;;;;;;;4.67;96.55;99146.25;4996257;28;20037;-79
2023/02/03 05:37:07;;;;;;;23.90;15.27;;;;;;;4.56;95.78;99142.41;5020779;28;20100;-80
2023/02/03 05:39:32;;;;;;;27.85;18.20;;;;;;;4.58;96.46;99135.09;4989425;28;20037;-80
2023/02/03 05:41:58;;;;;;;17.63;7.95;;;;;;;4.59;95.87;99138.53;5015759;28;20037;-81
2023/02/03 05:44:25;;;;;;;19.27;11.73;;;;;;;4.56;96.57;99121.25;5003064;28;20031;-80
2023/02/03 05:46:52;;;;;;;26.67;16.63;;;;;;;4.60;96.22;99111.09;5018097;28;20039;-79
2023/02/03 05:49:22;;;;;;;25.67;16.20;;;;;;;4.62;96.25;99138.94;5033308;28;20108;-80
2023/02/03 05:51:48;;;;;;;23.92;14.13;;;;;;;4.66;95.71;99132.22;5012595;28;20637;-79
2023/02/03 05:54:14;;;;;;;25.52;15.48;;;;;;;4.62;96.11;99128.38;5012340;28;20056;-81
2023/02/03 05:56:40;;;;;;;24.13;14.35;;;;;;;4.61;95.83;99141.81;5028721;28;20076;-82
2023/02/03 05:59:05;;;;;;;29.38;15.05;;;;;;;4.66;96.13;99155.19;5003425;28;20029;-81
2023/02/03 06:01:32;;;;;;;30.42;16.85;;;;;;;4.70;95.51;99164.34;4999896;28;20036;-80
2023/02/03 06:03:58;;;;;;;22.42;15.48;;;;;;;4.70;95.32;99148.47;5032237;28;20021;-79
2023/02/03 06:06:24;;;;;;;26.83;16.38;;;;;;;4.71;95.65;99156.25;5014645;28;20027;-79
2023/02/03 06:08:55;;;;;;;26.33;15.10;;;;;;;4.65;95.35;99156.22;5017412;28;20121;-79
2023/02/03 06:11:20;;;;;;;18.58;12.20;;;;;;;4.65;95.33;99145.66;5019586;28;20068;-79
2023/02/03 06:13:46;;;;;;;23.60;15.98;;;;;;;4.74;95.29;99139.94;5038183;28;20158;-80
2023/02/03 06:16:11;;;;;;;16.02;10.20;;;;;;;4.63;96.22;99122.06;5007858;28;20029;-81
2023/02/03 06:18:36;;;;;;;20.02;12.95;;;;;;;4.74;95.06;99134.66;5016377;28;20029;-81
2023/02/03 06:21:02;;;;;;;30.60;12.75;;;;;;;4.68;95.71;99134.66;5034644;28;20025;-79
2023/02/03 06:23:27;;;;;;;25.35;13.75;;;;;;;4.75;95.71;99140.78;5017783;28;20120;-80
2023/02/03 06:25:52;;;;;;;26.73;16.75;;;;;;;4.73;95.42;99150.72;5014184;28;20018;-79
2023/02/03 06:28:18;;;;;;;29.73;16.95;;;;;;;4.76;95.14;99145.84;5009568;28;20073;-80
2023/02/03 06:30:43;;;;;;;25.83;16.23;;;;;;;4.80;94.70;99143.63;5033294;28;20588;-80
2023/02/03 06:33:09;;;;;;;30.73;16.80;;;;;;;4.80;94.91;99152.38;5000243;28;20041;-80
2023/02/03 06:35:34;;;;;;;25.67;16.45;;;;;;;4.72;95.35;99152.56;5018000;28;20425;-80
2023/02/03 06:38:00;;;;;;;26.73;16.30;;;;;;;4.80;95.23;99165.59;5032517;28;20034;-80
2023/02/03 06:40:26;;;;;;;24.50;14.43;;;;;;;4.76;94.75;99161.72;5033270;28;20049;-81
2023/02/03 06:42:51;;;;;;;25.45;15.55;;;;;;;4.73;94.56;99158.66;5032794;28;20029;-81
2023/02/03 06:45:17;;;;;;;19.15;12.77;;;;;;;4.77;95.54;99160.69;5033538;28;20033;-80
2023/02/03 06:47:44;;;;;;;23.20;15.45;;;;;;;4.83;95.15;99177.56;5031568;28;20040;-80
2023/02/03 06:50:11;;;;;;;30.25;16.05;;;;;;;4.77;94.59;99162.53;5030297;28;20049;-81
2023/02/03 06:52:37;;;;;;;16.63;11.68;;;;;;;4.75;95.15;99157.44;5033291;28;20558;-81
2023/02/03 06:55:04;;;;;;;22.15;11.98;;;;;;;4.76;95.54;99159.06;5001121;28;20029;-80
2023/02/03 06:57:29;;;;;;;25.05;12.68;;;;;;;4.81;94.53;99163.75;5030518;28;20393;-80
2023/02/03 06:59:54;;;;;;;23.02;14.32;;;;;;;4.89;94.96;99168.84;5013043;28;20097;-79
2023/02/03 07:02:20;;;;;;;17.55;13.45;;;;;;;4.83;94.95;99153.78;5016993;28;20040;-79
2023/02/03 07:04:45;;;;;;;22.00;13.07;;;;;;;4.84;95.13;99174.75;5024721;28;20118;-80
2023/02/03 07:07:11;;;;;;;18.77;12.98;;;;;;;4.84;95.53;99160.69;5031314;28;20029;-80
2023/02/03 07:09:37;;;;;;;14.63;10.10;;;;;;;4.79;95.24;99157.84;5017493;28;20033;-80
2023/02/03 07:12:03;;;;;;;18.73;12.25;;;;;;;4.77;95.28;99141.38;5033472;28;20486;-80
2023/02/03 07:14:29;;;;;;;23.08;14.48;;;;;;;4.86;96.09;99154.19;5028870;28;20057;-79
2023/02/03 07:16:55;;;;;;;25.83;14.55;;;;;;;4.87;95.26;99139.16;5026344;28;20030;-80
2023/02/03 07:19:21;;;;;;;20.55;13.82;;;;;;;4.80;95.46;99139.16;5033210;28;20041;-80
2023/02/03 07:21:46;;;;;;;19.67;13.77;;;;;;;4.82;96.40;99141.59;5030950;28;20029;-80
2023/02/03 07:24:12;;;;;;;17.05;10.45;;;;;;;4.88;96.30;99146.06;5020230;28;20033;-80
2023/02/03 07:26:38;;;;;;;23.40;14.13;;;;;;;4.90;95.47;99149.31;5044015;28;20037;-81
2023/02/03 07:29:04;;;;;;;18.75;12.77;;;;;;;4.90;95.43;99166.00;5030405;28;20517;-80
2023/02/03 07:31:29;;;;;;;19.55;12.25;;;;;;;4.90;96.06;99155.41;5033254;28;20044;-81
2023/02/03 07:33:55;;;;;;;19.08;13.93;;;;;;;4.93;95.62;99160.31;5025946;28;20088;-81
2023/02/03 07:36:20;;;;;;;20.15;12.20;;;;;;;4.80;96.22;99135.69;5035215;28;20032;-80
2023/02/03 07:38:46;;;;;;;21.08;14.23;;;;;;;4.95;96.21;99138.94;5041270;28;20133;-79
2023/02/03 07:41:11;;;;;;;18.52;12.90;;;;;;;4.89;95.94;99155.63;5035517;28;20021;-80
2023/02/03 07:43:36;;;;;;;19.80;13.25;;;;;;;4.97;95.87;99158.06;5015622;28;20120;-80
2023/02/03 07:46:02;;;;;;;18.17;11.57;;;;;;;4.95;95.97;99137.09;5040341;28;20032;-80
2023/02/03 07:48:28;;;;;;;11.70;8.13;;;;;;;4.95;96.23;99157.44;5027112;28;20033;-80
2023/02/03 07:50:53;;;;;;;15.63;10.38;;;;;;;4.88;96.62;99154.81;5032946;28;20155;-80
2023/02/03 07:53:19;;;;;;;13.05;8.65;;;;;;;4.86;96.62;99153.38;5021909;28;20123;-80
2023/02/03 07:55:44;;;;;;;15.75;10.23;;;;;;;4.89;97.43;99147.69;5011655;28;20037;-81
2023/02/03 07:58:10;;;;;;;17.35;11.45;;;;;;;4.90;97.64;99159.88;5023929;28;20037;-81
2023/02/03 08:00:36;;;;;;;15.15;11.05;;;;;;;4.87;98.07;99147.09;5027630;28;20784;-81
2023/02/03 08:03:02;;;;;;;18.67;10.88;;;;;;;4.79;98.29;99136.69;5008551;28;20056;-83
2023/02/03 08:05:29;;;;;;;16.38;11.35;;;;;;;4.91;98.80;99135.91;5023985;28;20025;-81
2023/02/03 08:07:54;;;;;;;15.68;12.07;;;;;;;4.93;98.47;99125.09;5027939;28;20464;-81
2023/02/03 08:10:20;;;;;;;14.05;10.35;;;;;;;4.97;98.31;99150.13;5028759;28;20029;-81
2023/02/03 08:12:45;;;;;;;16.88;10.13;;;;;;;4.90;99.05;99133.44;5031028;28;20458;-81
2023/02/03 08:15:12;;;;;;;15.57;9.07;;;;;;;4.88;99.89;99120.44;5008090;28;20390;-82
2023/02/03 08:17:40;;;;;;;9.32;7.18;;;;;;;4.92;99.30;99140.16;5014987;28;20112;-81
2023/02/03 08:20:06;;;;;;;14.32;9.80;;;;;;;4.88;99.42;99123.06;5029969;28;20025;-81
2023/02/03 08:22:31;;;;;;;12.27;7.18;;;;;;;4.86;99.65;99106.59;5027850;28;20068;-81
2023/02/03 08:24:57;;;;;;;11.10;9.18;;;;;;;4.93;99.32;99117.16;5033847;28;20056;-81
2023/02/03 08:27:22;;;;;;;12.52;10.63;;;;;;;4.95;99.42;99107.19;5016031;28;20072;-82
2023/02/03 08:29:48;;;;;;;11.70;9.15;;;;;;;4.98;99.55;99104.16;5032037;28;20052;-81
2023/02/03 08:32:17;;;;;;;10.70;9.23;;;;;;;4.90;99.66;99105.16;5032603;28;20029;-81
2023/02/03 08:34:43;;;;;;;11.10;8.60;;;;;;;4.92;99.95;99119.00;5036112;28;20057;-82
2023/02/03 08:37:10;;;;;;;11.10;8.70;;;;;;;4.95;99.68;99117.78;5010078;28;20048;-81
2023/02/03 08:39:36;;;;;;;16.13;9.90;;;;;;;4.99;99.90;99105.75;5028705;28;20033;-81
2023/02/03 08:42:03;;;;;;;7.75;5.80;;;;;;;4.99;99.53;99114.50;5015668;28;20036;-81
2023/02/03 08:44:30;;;;;;;7.47;6.18;;;;;;;4.96;99.99;99103.50;5029861;28;20385;-81
2023/02/03 08:46:55;;;;;;;11.55;8.52;;;;;;;5.02;99.66;99102.72;5026649;28;20408;-82
2023/02/03 08:49:21;;;;;;;9.55;7.63;;;;;;;5.06;99.73;99098.63;5015575;28;20041;-82
2023/02/03 08:51:48;;;;;;;9.80;5.90;;;;;;;4.92;99.96;99091.72;5013152;28;20040;-80
2023/02/03 08:54:14;;;;;;;13.65;7.82;;;;;;;4.98;100.00;99085.63;5030803;28;20026;-81
2023/02/03 08:56:40;;;;;;;9.45;7.57;;;;;;;5.02;100.00;99081.56;5031548;28;20112;-81
2023/02/03 08:59:05;;;;;;;11.77;6.00;;;;;;;5.02;99.99;99094.78;5032289;28;20454;-81
2023/02/03 09:01:31;;;;;;;8.55;5.65;;;;;;;5.00;100.00;99083.59;5024466;28;20457;-81
2023/02/03 09:03:56;;;;;;;10.38;8.00;;;;;;;5.04;100.00;99082.16;5027924;28;20040;-81
2023/02/03 09:06:23;;;;;;;11.38;9.23;;;;;;;5.14;99.83;99087.81;5011695;28;20060;-80
2023/02/03 09:08:48;;;;;;;9.77;7.72;;;;;;;5.06;99.93;99077.47;5029097;28;20926;-81
2023/02/03 09:11:16;;;;;;;6.75;5.38;;;;;;;5.04;100.00;99077.69;5012328;28;20029;-81
2023/02/03 09:13:47;;;;;;;9.20;7.70;;;;;;;5.08;100.00;99072.78;5030683;28;20079;-80
2023/02/03 09:16:16;;;;;;;8.60;5.80;;;;;;;5.00;100.00;99050.00;5030604;28;20377;-80
2023/02/03 09:18:42;;;;;;;11.98;7.55;;;;;;;5.13;100.00;99073.75;5029637;28;20401;-80
2023/02/03 09:21:11;;;;;;;6.78;5.82;;;;;;;5.08;100.00;99067.50;5012087;28;20519;-80
2023/02/03 09:23:38;;;;;;;9.98;6.82;;;;;;;5.07;100.00;99056.09;5011315;28;20547;-81
2023/02/03 09:26:05;;;;;;;6.18;4.80;;;;;;;5.05;100.00;99058.13;5013384;28;20040;-80
2023/02/03 09:28:32;;;;;;;8.10;5.68;;;;;;;5.10;100.00;99058.31;5028703;28;20489;-80
2023/02/03 09:31:05;;;;;;;6.20;3.70;;;;;;;5.13;100.00;99059.75;5027050;28;20041;-81
2023/02/03 09:33:30;;;;;;;12.43;6.90;;;;;;;5.17;100.00;99059.13;5026466;28;20025;-80
2023/02/03 09:35:57;;;;;;;11.07;6.88;;;;;;;5.17;100.00;99064.41;5028882;28;20381;-82
2023/02/03 09:38:23;;;;;;;9.20;7.13;;;;;;;5.13;100.00;99063.19;5011085;28;20033;-80
2023/02/03 09:40:53;;;;;;;9.13;7.43;;;;;;;5.09;100.00;99051.41;5028570;28;20498;-81
2023/02/03 09:43:22;;;;;;;13.40;7.05;;;;;;;5.25;100.00;99060.72;5025891;28;20030;-81
2023/02/03 09:45:47;;;;;;;8.90;6.75;;;;;;;5.21;100.00;99062.97;5023901;28;20051;-81
2023/02/03 09:48:22;;;;;;;9.40;8.13;;;;;;;5.22;100.00;99061.16;5014573;28;20037;-82
2023/02/03 09:50:49;;;;;;;10.95;7.18;;;;;;;5.27;99.95;99071.91;5023401;28;20166;-80
2023/02/03 09:53:32;;;;;;;8.10;6.90;;;;;;;5.17;100.00;99053.84;4996379;28;20120;-81
2023/02/03 09:55:58;;;;;;;9.30;6.80;;;;;;;5.23;100.00;99084.75;5021875;28;20025;-81
2023/02/03 09:58:27;;;;;;;9.65;6.55;;;;;;;5.29;100.00;99085.72;5009772;28;20033;-81
2023/02/03 10:00:57;;;;;;;9.57;6.22;;;;;;;5.28;100.00;99082.28;5012440;28;20037;-80
2023/02/03 10:03:49;;;;;;;9.43;5.72;;;;;;;5.26;100.00;99070.28;5014437;28;20040;-80
2023/02/03 10:06:21;;;;;;;9.48;6.72;;;;;;;5.27;100.00;99069.25;5014660;28;20036;-80
2023/02/03 10:09:15;;;;;;;10.30;6.45;;;;;;;5.29;100.00;99072.50;5025825;28;20381;-80
2023/02/03 10:11:59;;;;;;;6.10;5.15;;;;;;;5.30;100.00;99067.03;5023826;28;20033;-81
2023/02/03 10:14:37;;;;;;;7.63;6.18;;;;;;;5.33;100.00;99076.34;5022497;28;20021;-81
2023/02/03 10:17:15;;;;;;;6.82;5.88;;;;;;;5.30;100.00;99063.56;5027134;28;20513;-82
2023/02/03 10:19:50;;;;;;;9.75;5.13;;;;;;;5.32;99.84;99069.44;5012933;28;20031;-81
2023/02/03 10:22:24;;;;;;;10.13;6.78;;;;;;;5.42;99.94;99079.59;5025255;28;20148;-81
2023/02/03 10:25:04;;;;;;;9.73;8.30;;;;;;;5.40;99.58;99077.16;5019804;28;20029;-81
2023/02/03 10:27:32;;;;;;;11.48;7.07;;;;;;;5.43;100.00;99078.56;5021717;28;20054;-80
2023/02/03 10:30:18;;;;;;;9.95;7.13;;;;;;;5.22;99.87;99043.41;5037320;28;20033;-80
2023/02/03 10:32:43;;;;;;;;;;;;;;;5.39;100.00;99078.19;5037268;28;20503;-81
2023/02/03 10:35:13;;;;;;;13.93;8.63;;;;;;;5.32;100.00;99064.16;5034080;28;19917;-80
2023/02/03 10:37:44;;;;;;;12.48;8.30;;;;;;;5.37;100.00;99061.69;5023578;28;20445;-81
2023/02/03 10:40:15;;;;;;;24.67;12.63;;;;;;;5.30;100.00;99064.38;5014351;28;20406;-81
2023/02/03 10:45:26;;;;;;;16.65;12.32;;;;;;;5.29;100.00;99041.56;5023957;28;20037;-80
2023/02/03 10:47:54;;;;;;;21.75;12.90;;;;;;;5.37;100.00;99051.13;5030932;28;20729;-82
2023/02/03 10:50:30;;;;;;;20.40;11.63;;;;;;;5.41;100.00;99057.63;5029941;28;20196;-82
2023/02/03 10:53:20;;;;;;;15.93;9.63;;;;;;;5.40;100.00;99058.63;5033998;28;20033;-82
2023/02/03 10:55:50;;;;;;;20.48;11.95;;;;;;;5.40;100.00;99048.03;5013866;28;20037;-83
2023/02/03 10:58:26;;;;;;;23.60;13.43;;;;;;;5.31;100.00;99023.63;5031278;28;20105;-82
2023/02/03 11:00:56;;;;;;;;;;;;;;;5.42;100.00;99038.03;5025177;28;20481;-82
2023/02/03 11:03:26;;;;;;;16.20;10.20;;;;;;;5.40;100.00;99028.69;5012060;28;19947;-82
2023/02/03 11:06:09;;;;;;;14.10;7.35;;;;;;;5.39;100.00;99006.72;5009525;28;20393;-82
2023/02/03 11:08:37;;;;;;;11.93;9.10;;;;;;;5.43;100.00;99022.97;5031480;28;21653;-82
2023/02/03 11:11:06;;;;;;;15.93;8.85;;;;;;;5.45;100.00;99013.81;5031659;28;20108;-81
2023/02/03 11:13:32;;;;;;;13.32;8.93;;;;;;;5.41;100.00;98988.78;5033126;28;20527;-82
2023/02/03 11:16:23;;;;;;;16.45;11.25;;;;;;;5.50;100.00;99006.06;5026448;28;20021;-81
2023/02/03 11:18:56;;;;;;;15.95;10.65;;;;;;;5.50;100.00;99011.34;5027634;28;20041;-82
2023/02/03 11:21:29;;;;;;;17.77;11.77;;;;;;;5.53;100.00;99029.44;5026085;28;20033;-81
2023/02/03 11:24:07;;;;;;;15.65;9.43;;;;;;;5.51;100.00;98997.06;5013663;28;20033;-81
2023/02/03 11:26:40;;;;;;;18.80;11.07;;;;;;;5.54;100.00;98993.19;5031201;28;20030;-81
2023/02/03 11:29:13;;;;;;;18.00;11.70;;;;;;;5.55;100.00;98977.09;5012024;28;20017;-81
2023/02/03 11:31:39;;;;;;;16.77;8.10;;;;;;;5.51;100.00;98977.72;5034683;28;20504;-83
2023/02/03 11:34:13;;;;;;;13.77;8.88;;;;;;;5.53;100.00;98992.38;5037643;28;20266;-82
2023/02/03 11:36:39;;;;;;;13.32;8.63;;;;;;;5.61;100.00;98986.03;5029368;28;20439;-83